createdAt,value
2022-10-11T00:03:22.576Z,100810.63
2022-10-11T00:08:26.576Z,100824.59
2022-10-11T00:13:29.296Z,100832.59
2022-10-11T00:18:31.905Z,100835.88
2022-10-11T00:23:35.937Z,100837.56
2022-10-11T00:28:38.797Z,100858.53
2022-10-11T00:33:41.495Z,100864.41
2022-10-11T00:38:45.487Z,100880.63
2022-10-11T00:43:48.163Z,100882.91
2022-10-11T00:48:52.032Z,100897.00
2022-10-11T00:53:55.987Z,100908.72
2022-10-11T00:58:58.610Z,100904.75
2022-10-11T01:04:01.824Z,100909.50
2022-10-11T01:09:05.813Z,100912.38
2022-10-11T01:14:16.803Z,100919.69
2022-10-11T01:19:31.856Z,100923.56
2022-10-11T01:25:01.356Z,100930.84
2022-10-11T01:30:14.038Z,100929.47
2022-10-11T01:35:18.132Z,100938.59
2022-10-11T01:40:22.924Z,100951.47
2022-10-11T01:45:26.925Z,100953.63
2022-10-11T01:50:44.752Z,100954.81
2022-10-11T01:55:49.678Z,100956.09
2022-10-11T02:00:57.032Z,100956.97
2022-10-11T02:06:02.202Z,100970.47
2022-10-11T02:11:06.974Z,100977.03
2022-10-11T02:16:12.568Z,100989.69
2022-10-11T02:21:17.668Z,100995.19
2022-10-11T02:26:20.311Z,100993.47
2022-10-11T02:31:24.438Z,100998.91
2022-10-11T02:36:31.337Z,101006.09
2022-10-11T02:41:36.394Z,101010.84
2022-10-11T02:46:40.574Z,101025.13
2022-10-11T02:51:43.268Z,101037.78
2022-10-11T02:56:45.881Z,101038.81
2022-10-11T03:01:49.922Z,101040.66
2022-10-11T03:06:52.691Z,101050.53
2022-10-11T03:11:55.489Z,101064.16
2022-10-11T03:17:17.262Z,101069.53
2022-10-11T03:22:22.818Z,101070.59
2022-10-11T03:27:25.514Z,101083.06
2022-10-11T03:32:29.580Z,101084.88
2022-10-11T03:37:32.430Z,101086.50
2022-10-11T03:42:35.352Z,101086.91
2022-10-11T03:47:40.032Z,101086.59
2022-10-11T03:52:42.934Z,101094.75
2022-10-11T03:57:45.673Z,101091.34
2022-10-11T04:02:49.780Z,101089.56
2022-10-11T04:07:52.420Z,101101.50
2022-10-11T04:12:55.033Z,101113.72
2022-10-11T04:17:59.025Z,101114.91
2022-10-11T04:23:01.675Z,101131.97
2022-10-11T04:28:04.619Z,101134.66
2022-10-11T04:33:08.960Z,101129.19
2022-10-11T04:38:11.738Z,101137.44
2022-10-11T04:43:16.594Z,101141.97
2022-10-11T04:48:20.556Z,101146.34
2022-10-11T04:53:23.292Z,101156.34
2022-10-11T04:58:25.991Z,101153.81
2022-10-11T05:03:29.967Z,101162.63
2022-10-11T05:08:32.645Z,101168.97
2022-10-11T05:13:35.642Z,101177.31
2022-10-11T05:18:39.748Z,101183.34
2022-10-11T05:23:42.402Z,101182.69
2022-10-11T05:28:45.157Z,101190.75
2022-10-11T05:33:49.531Z,101192.78
2022-10-11T05:38:52.325Z,101200.03
2022-10-11T05:43:55.038Z,101209.91
2022-10-11T05:48:59.178Z,101218.97
2022-10-11T05:54:01.822Z,101226.16
2022-10-11T05:59:05.252Z,101244.00
2022-10-11T06:04:10.008Z,101244.78
2022-10-11T06:09:13.082Z,101247.47
2022-10-11T06:14:15.911Z,101256.38
2022-10-11T06:19:20.170Z,101255.69
2022-10-11T06:24:23.361Z,101262.72
2022-10-11T06:29:26.049Z,101261.75
2022-10-11T06:34:30.048Z,101278.69
2022-10-11T06:39:32.676Z,101279.66
2022-10-11T06:44:35.457Z,101282.25
2022-10-11T06:49:39.429Z,101287.72
2022-10-11T06:54:44.896Z,101297.41
2022-10-11T07:00:15.775Z,101300.88
2022-10-11T07:05:19.759Z,101305.47
2022-10-11T07:10:22.441Z,101308.16
2022-10-11T07:15:25.089Z,101320.16
2022-10-11T07:20:29.129Z,101326.19
2022-10-11T07:25:31.800Z,101326.19
2022-10-11T07:30:35.708Z,101327.72
2022-10-11T07:35:39.794Z,101323.78
2022-10-11T07:40:42.814Z,101338.03
2022-10-11T07:45:48.325Z,101342.00
2022-10-11T07:50:52.379Z,101353.13
2022-10-11T07:55:55.052Z,101361.50
2022-10-11T08:00:57.713Z,101356.81
2022-10-11T08:06:02.835Z,101354.97
2022-10-11T08:11:05.810Z,101358.25
2022-10-11T08:16:12.545Z,101360.50
2022-10-11T08:21:17.470Z,101365.69
2022-10-11T08:26:20.158Z,101369.06
2022-10-11T08:31:22.807Z,101365.16
2022-10-11T08:36:26.880Z,101363.34
2022-10-11T08:41:32.219Z,101365.69
2022-10-11T08:46:35.054Z,101375.44
2022-10-11T08:51:42.965Z,101365.75
2022-10-11T08:56:45.919Z,101376.16
2022-10-11T09:01:51.224Z,101379.53
2022-10-11T09:07:03.943Z,101377.97
2022-10-11T09:12:11.705Z,101379.34
2022-10-11T09:17:18.717Z,101371.97
2022-10-11T09:22:29.619Z,101376.47
2022-10-11T09:27:57.745Z,101372.66
2022-10-11T09:33:04.148Z,101364.34
2022-10-11T09:38:12.679Z,101367.63
2022-10-11T09:43:15.307Z,101382.91
2022-10-11T09:48:19.714Z,101371.16
2022-10-11T09:53:36.586Z,101371.84
2022-10-11T09:58:39.268Z,101366.97
2022-10-11T10:03:42.768Z,101375.13
2022-10-11T10:08:47.589Z,101372.06
2022-10-11T10:13:51.272Z,101368.41
2022-10-11T10:18:55.292Z,101367.09
2022-10-11T10:24:03.071Z,101369.59
2022-10-11T10:29:16.460Z,101378.50
2022-10-11T10:34:20.517Z,101375.81
2022-10-11T10:39:26.165Z,101373.06
2022-10-11T10:44:28.867Z,101380.06
2022-10-11T10:49:54.040Z,101373.56
2022-10-11T10:54:59.496Z,101377.97
2022-10-11T11:00:06.134Z,101364.41
2022-10-11T11:05:16.304Z,101374.66
2022-10-11T11:10:22.099Z,101381.38
2022-10-11T11:15:31.994Z,101380.50
2022-10-11T11:20:44.178Z,101380.59
2022-10-11T11:25:51.163Z,101370.34
2022-10-11T11:30:58.344Z,101361.22
2022-10-11T11:36:04.947Z,101368.75
2022-10-11T11:41:12.627Z,101354.25
2022-10-11T11:46:17.079Z,101357.59
2022-10-11T11:51:21.702Z,101349.19
2022-10-11T11:56:32.034Z,101350.69
2022-10-11T12:01:38.682Z,101332.38
2022-10-11T12:07:04.148Z,101330.75
2022-10-11T12:12:07.617Z,101329.19
2022-10-11T12:17:18.551Z,101330.75
2022-10-11T12:22:40.046Z,101319.50
2022-10-11T12:27:45.360Z,101327.06
2022-10-11T12:32:51.984Z,101325.78
2022-10-11T12:37:54.773Z,101313.41
2022-10-11T12:43:27.968Z,101312.72
2022-10-11T12:48:41.121Z,101305.41
2022-10-11T12:54:25.359Z,101305.88
2022-10-11T12:59:29.408Z,101301.06
2022-10-11T13:04:33.230Z,101300.88
2022-10-11T13:09:36.641Z,101306.69
2022-10-11T13:14:43.631Z,101304.63
2022-10-11T13:19:46.350Z,101302.91
2022-10-11T13:24:49.067Z,101300.31
2022-10-11T13:29:54.014Z,101303.97
2022-10-11T13:34:57.840Z,101300.00
2022-10-11T13:40:00.575Z,101299.78
2022-10-11T13:45:05.786Z,101301.72
2022-10-11T13:50:22.691Z,101300.75
2022-10-11T13:55:34.958Z,101298.84
2022-10-11T14:00:39.547Z,101299.78
2022-10-11T14:05:43.775Z,101296.56
2022-10-11T14:10:46.578Z,101291.81
2022-10-11T14:15:59.366Z,101290.31
2022-10-11T14:21:32.828Z,101294.06
2022-10-11T14:26:36.828Z,101296.13
2022-10-11T14:31:42.272Z,101302.56
2022-10-11T14:36:45.139Z,101298.16
2022-10-11T14:41:48.198Z,101302.91
2022-10-11T14:46:54.564Z,101295.09
2022-10-11T14:51:58.969Z,101296.06
2022-10-11T14:57:03.461Z,101288.97
2022-10-11T15:02:08.177Z,101293.38
2022-10-11T15:07:11.164Z,101281.41
2022-10-11T15:12:13.855Z,101291.63
2022-10-11T15:17:17.896Z,101284.53
2022-10-11T15:22:20.819Z,101296.91
2022-10-11T15:27:25.856Z,101292.03
2022-10-11T15:32:29.920Z,101290.09
2022-10-11T15:37:36.521Z,101295.81
2022-10-11T15:42:41.494Z,101295.69
2022-10-11T15:47:45.618Z,101297.53
2022-10-11T15:52:48.365Z,101293.31
2022-10-11T15:57:51.156Z,101298.03
2022-10-11T16:02:57.243Z,101307.47
2022-10-11T16:08:00.030Z,101305.22
2022-10-11T16:13:02.854Z,101311.81
2022-10-11T16:18:06.994Z,101307.59
2022-10-11T16:23:09.845Z,101311.75
2022-10-11T16:28:12.750Z,101312.72
2022-10-11T16:33:16.819Z,101316.47
2022-10-11T16:38:19.597Z,101326.03
2022-10-11T16:43:22.278Z,101320.28
2022-10-11T16:48:26.458Z,101325.03
2022-10-11T16:53:29.273Z,101335.91
2022-10-11T16:58:31.952Z,101333.47
2022-10-11T17:03:36.061Z,101342.84
2022-10-11T17:08:38.853Z,101340.91
2022-10-11T17:13:41.501Z,101350.06
2022-10-11T17:18:45.496Z,101342.84
2022-10-11T17:23:49.198Z,101344.75
2022-10-11T17:28:52.020Z,101340.34
2022-10-11T17:33:56.050Z,101348.00
2022-10-11T17:38:59.103Z,101349.28
2022-10-11T17:44:02.980Z,101352.38
2022-10-11T17:49:08.222Z,101346.78
2022-10-11T17:54:12.968Z,101349.59
2022-10-11T17:59:17.249Z,101349.78
2022-10-11T18:04:21.800Z,101332.88
2022-10-11T18:09:24.746Z,101344.00
2022-10-11T18:14:27.457Z,101341.63
2022-10-11T18:19:31.943Z,101340.94
2022-10-11T18:24:34.570Z,101345.06
2022-10-11T18:29:37.223Z,101340.78
2022-10-11T18:34:41.422Z,101344.31
2022-10-11T18:39:44.233Z,101339.00
2022-10-11T18:44:47.042Z,101330.00
2022-10-11T18:49:51.175Z,101323.78
2022-10-11T18:54:53.888Z,101329.34
2022-10-11T18:59:56.604Z,101339.81
2022-10-11T19:05:00.730Z,101337.22
2022-10-11T19:10:04.003Z,101327.31
2022-10-11T19:15:07.528Z,101340.66
2022-10-11T19:20:12.719Z,101333.47
2022-10-11T19:25:15.561Z,101340.84
2022-10-11T19:30:18.383Z,101333.00
2022-10-11T19:35:22.469Z,101330.19
2022-10-11T19:40:25.284Z,101331.84
2022-10-11T19:45:28.684Z,101340.78
2022-10-11T19:50:32.741Z,101339.91
2022-10-11T19:55:36.000Z,101336.44
2022-10-11T20:00:38.727Z,101337.13
2022-10-11T20:05:42.843Z,101339.97
2022-10-11T20:10:45.568Z,101339.97
2022-10-11T20:15:48.262Z,101340.94
2022-10-11T20:20:55.888Z,101336.03
2022-10-11T20:25:59.940Z,101331.72
2022-10-11T20:31:03.565Z,101331.53
2022-10-11T20:36:08.536Z,101341.53
2022-10-11T20:41:12.122Z,101339.81
2022-10-11T20:46:15.629Z,101344.41
2022-10-11T20:51:19.751Z,101351.41
2022-10-11T20:56:22.686Z,101340.94
2022-10-11T21:01:27.074Z,101345.38
2022-10-11T21:06:31.859Z,101347.09
2022-10-11T21:11:35.582Z,101350.84
2022-10-11T21:16:38.307Z,101350.94
2022-10-11T21:21:42.363Z,101350.84
2022-10-11T21:26:45.072Z,101347.50
2022-10-11T21:31:47.724Z,101349.97
2022-10-11T21:36:51.821Z,101342.25
2022-10-11T21:41:54.887Z,101330.53
2022-10-11T21:47:13.049Z,101331.38
2022-10-11T21:52:17.091Z,101336.25
2022-10-11T21:57:19.778Z,101341.97
2022-10-11T22:02:22.454Z,101342.53
2022-10-11T22:07:26.614Z,101349.28
2022-10-11T22:12:29.244Z,101347.25
2022-10-11T22:17:31.874Z,101340.56
2022-10-11T22:22:36.259Z,101339.69
2022-10-11T22:27:39.095Z,101347.09
2022-10-11T22:32:41.897Z,101344.72
2022-10-11T22:42:48.388Z,101348.78
2022-10-11T22:47:51.048Z,101355.44
2022-10-11T22:52:55.039Z,101358.13
2022-10-11T22:57:58.092Z,101361.41
2022-10-11T23:03:00.812Z,101353.09
2022-10-11T23:08:04.814Z,101352.34
2022-10-11T23:13:07.437Z,101359.78
2022-10-11T23:18:10.094Z,101355.88
2022-10-11T23:23:14.139Z,101353.47
2022-10-11T23:28:16.813Z,101357.03
2022-10-11T23:33:19.433Z,101354.81
2022-10-11T23:38:23.499Z,101357.91
2022-10-11T23:43:26.146Z,101361.72
2022-10-11T23:48:28.801Z,101356.56
2022-10-11T23:53:33.085Z,101361.53
2022-10-11T23:58:35.811Z,101369.00
